createdAt,value
2018-02-05T00:01:12.932Z,129.13
2018-02-05T00:03:19.131Z,113.90
2018-02-05T00:05:24.840Z,105.80
2018-02-05T00:07:30.913Z,109.87
2018-02-05T00:09:36.406Z,100.23
2018-02-05T00:11:42.791Z,97.87
2018-02-05T00:13:48.552Z,92.97
2018-02-05T00:15:54.437Z,87.73
2018-02-05T00:17:59.850Z,85.70
2018-02-05T00:20:05.704Z,81.07
2018-02-05T00:22:16.164Z,81.27
2018-02-05T00:24:22.088Z,72.13
2018-02-05T00:26:27.517Z,72.73
2018-02-05T00:28:34.243Z,68.30
2018-02-05T00:30:40.096Z,67.33
2018-02-05T00:32:45.509Z,61.70
2018-02-05T00:34:51.492Z,57.80
2018-02-05T00:36:57.926Z,57.83
2018-02-05T00:39:03.494Z,55.33
2018-02-05T00:41:08.875Z,48.30
2018-02-05T00:43:14.833Z,50.47
2018-02-05T00:45:20.784Z,47.97
2018-02-05T00:47:26.833Z,44.07
2018-02-05T00:49:32.697Z,41.87
2018-02-05T00:51:39.069Z,41.13
2018-02-05T00:53:45.541Z,39.77
2018-02-05T00:55:51.264Z,38.87
2018-02-05T00:57:57.091Z,36.37
2018-02-05T01:00:03.564Z,35.23
2018-02-05T01:02:09.507Z,37.63
2018-02-05T01:04:15.295Z,35.33
2018-02-05T01:06:21.072Z,32.87
2018-02-05T01:08:28.192Z,30.67
2018-02-05T01:10:33.991Z,30.40
2018-02-05T01:12:39.316Z,28.13
2018-02-05T01:14:45.356Z,25.77
2018-02-05T01:16:51.655Z,27.03
2018-02-05T01:18:57.575Z,25.70
2018-02-05T01:21:03.372Z,25.33
2018-02-05T01:23:09.564Z,24.60
2018-02-05T01:25:15.600Z,23.23
2018-02-05T01:27:21.863Z,22.60
2018-02-05T01:29:27.314Z,22.63
2018-02-05T01:31:32.951Z,21.57
2018-02-05T01:33:38.727Z,22.63
2018-02-05T01:35:45.006Z,22.97
2018-02-05T01:37:51.602Z,20.27
2018-02-05T01:39:57.464Z,18.60
2018-02-05T01:42:03.263Z,19.03
2018-02-05T01:44:09.458Z,19.67
2018-02-05T01:46:15.265Z,16.73
2018-02-05T01:48:21.627Z,16.60
2018-02-05T01:50:28.138Z,17.60
2018-02-05T01:52:34.706Z,17.60
2018-02-05T01:54:40.750Z,19.63
2018-02-05T01:56:46.705Z,16.97
2018-02-05T01:58:52.897Z,16.97
2018-02-05T02:00:59.229Z,16.10
2018-02-05T02:03:05.167Z,15.13
2018-02-05T02:05:11.348Z,17.53
2018-02-05T02:07:17.299Z,15.10
2018-02-05T02:09:23.621Z,16.47
2018-02-05T02:11:29.665Z,16.00
2018-02-05T02:13:36.365Z,15.50
2018-02-05T02:15:42.304Z,15.27
2018-02-05T02:17:49.019Z,14.70
2018-02-05T02:19:55.101Z,14.27
2018-02-05T02:22:01.577Z,16.53
2018-02-05T02:24:07.560Z,14.83
2018-02-05T02:26:13.873Z,15.03
2018-02-05T02:28:20.047Z,15.40
2018-02-05T02:30:26.043Z,15.13
2018-02-05T02:32:32.711Z,14.33
2018-02-05T02:34:39.097Z,14.60
2018-02-05T02:36:45.060Z,14.00
2018-02-05T02:38:51.161Z,15.60
2018-02-05T02:40:57.109Z,17.13
2018-02-05T02:43:03.723Z,13.50
2018-02-05T02:45:11.304Z,14.50
2018-02-05T02:47:17.799Z,14.30
2018-02-05T02:49:24.261Z,13.23
2018-02-05T02:51:30.691Z,13.30
2018-02-05T02:53:37.163Z,13.20
2018-02-05T02:55:43.415Z,13.53
2018-02-05T02:57:48.734Z,13.10
2018-02-05T02:59:54.922Z,14.67
2018-02-05T03:02:00.930Z,14.10
2018-02-05T03:04:06.695Z,13.43
2018-02-05T03:06:12.967Z,13.53
2018-02-05T03:08:19.519Z,12.67
2018-02-05T03:10:25.371Z,13.60
2018-02-05T03:12:31.367Z,16.20
2018-02-05T03:14:37.619Z,12.77
2018-02-05T03:16:43.951Z,13.43
2018-02-05T03:18:50.119Z,13.03
2018-02-05T03:20:55.876Z,14.83
2018-02-05T03:23:01.851Z,15.10
2018-02-05T03:25:09.560Z,15.90
2018-02-05T03:27:16.351Z,14.07
2018-02-05T03:29:22.842Z,13.57
2018-02-05T03:31:28.696Z,13.23
2018-02-05T03:33:35.164Z,13.43
2018-02-05T03:35:41.232Z,13.47
2018-02-05T03:37:47.574Z,13.33
2018-02-05T03:39:53.596Z,13.43
2018-02-05T03:41:59.520Z,13.37
2018-02-05T03:44:05.534Z,14.03
2018-02-05T03:46:11.879Z,12.63
2018-02-05T03:48:18.005Z,12.57
2018-02-05T03:50:28.624Z,12.23
2018-02-05T03:52:34.887Z,12.23
2018-02-05T03:54:41.068Z,12.90
2018-02-05T03:56:47.052Z,13.53
2018-02-05T03:58:52.900Z,12.37
2018-02-05T04:00:59.220Z,10.87
2018-02-05T04:03:05.679Z,13.90
2018-02-05T04:05:12.471Z,11.33
2018-02-05T04:07:18.755Z,11.50
2018-02-05T04:09:28.165Z,11.70
2018-02-05T04:11:34.339Z,11.33
2018-02-05T04:13:40.580Z,14.03
2018-02-05T04:15:46.398Z,12.53
2018-02-05T04:17:53.155Z,11.83
2018-02-05T04:19:59.367Z,13.10
2018-02-05T04:22:05.883Z,11.37
2018-02-05T04:24:12.170Z,13.73
2018-02-05T04:26:18.080Z,12.33
2018-02-05T04:28:25.305Z,10.90
2018-02-05T04:30:31.718Z,10.73
2018-02-05T04:32:40.527Z,10.70
2018-02-05T04:34:46.477Z,14.77
2018-02-05T04:36:52.701Z,11.60
2018-02-05T04:38:58.734Z,11.10
2018-02-05T04:41:04.686Z,10.50
2018-02-05T04:43:11.337Z,12.33
2018-02-05T04:45:17.590Z,11.40
2018-02-05T04:47:23.461Z,12.80
2018-02-05T04:49:29.299Z,10.83
2018-02-05T04:51:35.308Z,11.83
2018-02-05T04:53:41.671Z,10.60
2018-02-05T04:55:49.070Z,11.13
2018-02-05T04:57:54.867Z,12.37
2018-02-05T05:00:00.835Z,11.73
2018-02-05T05:02:07.476Z,12.27
2018-02-05T05:04:13.396Z,11.17
2018-02-05T05:06:21.569Z,12.07
2018-02-05T05:08:27.608Z,10.30
2018-02-05T05:10:34.045Z,11.63
2018-02-05T05:12:39.959Z,11.33
2018-02-05T05:14:45.922Z,13.17
2018-02-05T05:16:52.167Z,10.23
2018-02-05T05:18:58.906Z,12.03
2018-02-05T05:21:05.857Z,10.73
2018-02-05T05:23:11.863Z,11.50
2018-02-05T05:25:17.794Z,11.23
2018-02-05T05:27:23.954Z,10.97
2018-02-05T05:29:30.416Z,10.60
2018-02-05T05:31:36.592Z,11.73
2018-02-05T05:33:42.860Z,10.20
2018-02-05T05:35:49.927Z,10.33
2018-02-05T05:37:55.596Z,10.43
2018-02-05T05:40:01.422Z,10.53
2018-02-05T05:42:07.384Z,10.47
2018-02-05T05:44:12.734Z,10.80
2018-02-05T05:46:18.800Z,10.27
2018-02-05T05:48:24.175Z,11.00
2018-02-05T05:50:35.571Z,11.13
2018-02-05T05:52:40.885Z,11.20
2018-02-05T05:54:46.646Z,9.90
2018-02-05T05:56:52.584Z,11.10
2018-02-05T05:58:58.097Z,11.23
2018-02-05T06:01:04.392Z,10.73
2018-02-05T06:03:10.036Z,9.57
2018-02-05T06:05:16.152Z,10.40
2018-02-05T06:07:22.063Z,9.60
2018-02-05T06:09:28.057Z,10.33
2018-02-05T06:11:34.727Z,9.63
2018-02-05T06:13:40.090Z,9.73
2018-02-05T06:15:46.202Z,9.73
2018-02-05T06:17:52.386Z,9.37
2018-02-05T06:19:58.448Z,11.57
2018-02-05T06:22:04.370Z,12.33
2018-02-05T06:24:09.799Z,11.40
2018-02-05T06:26:16.273Z,9.67
2018-02-05T06:28:22.430Z,9.17
2018-02-05T06:30:28.211Z,10.37
2018-02-05T06:32:34.495Z,11.20
2018-02-05T06:34:41.120Z,14.97
2018-02-05T06:36:46.986Z,19.10
2018-02-05T06:38:52.741Z,18.53
2018-02-05T06:40:59.550Z,630.70
2018-02-05T06:43:05.197Z,660.10
2018-02-05T06:45:13.056Z,759.23
2018-02-05T06:47:19.820Z,700.63
2018-02-05T06:49:26.306Z,467.43
2018-02-05T06:53:46.367Z,411.97
2018-02-05T06:55:52.145Z,321.20
2018-02-05T06:57:59.105Z,334.20
2018-02-05T07:00:05.234Z,335.67
2018-02-05T07:02:10.754Z,314.93
2018-02-05T07:04:18.222Z,314.73
2018-02-05T07:06:24.916Z,303.00
2018-02-05T07:08:30.871Z,279.47
2018-02-05T07:10:36.232Z,524.17
2018-02-05T07:14:52.281Z,780.67
2018-02-05T07:16:57.755Z,914.67
2018-02-05T07:19:03.182Z,789.00
2018-02-05T07:21:08.505Z,686.17
2018-02-05T07:23:15.034Z,641.17
2018-02-05T07:25:20.415Z,615.00
2018-02-05T07:27:26.961Z,599.63
2018-02-05T07:29:33.091Z,568.87
2018-02-05T07:31:39.202Z,560.27
2018-02-05T07:33:45.032Z,542.47
2018-02-05T07:35:51.003Z,530.93
2018-02-05T07:37:57.052Z,522.43
2018-02-05T07:40:03.160Z,769.97
2018-02-05T07:42:08.920Z,743.93
2018-02-05T07:44:14.757Z,858.47
2018-02-05T07:46:20.738Z,796.17
2018-02-05T07:48:26.077Z,756.83
2018-02-05T07:50:32.010Z,721.07
2018-02-05T07:52:38.254Z,681.30
2018-02-05T07:54:44.488Z,663.93
2018-02-05T07:56:50.483Z,635.50
2018-02-05T07:58:55.910Z,609.33
2018-02-05T08:01:02.407Z,592.90
2018-02-05T08:03:07.762Z,583.93
2018-02-05T08:05:13.158Z,723.60
2018-02-05T08:07:19.439Z,782.17
2018-02-05T08:09:24.851Z,796.50
2018-02-05T08:11:30.215Z,814.53
2018-02-05T08:13:35.572Z,784.30
2018-02-05T08:15:41.183Z,748.07
2018-02-05T08:17:46.491Z,714.30
2018-02-05T08:19:51.853Z,692.00
2018-02-05T08:21:57.271Z,673.47
2018-02-05T08:24:02.956Z,791.90
2018-02-05T08:26:08.214Z,1041.87
2018-02-05T08:28:13.519Z,953.13
2018-02-05T08:30:19.241Z,894.10
2018-02-05T08:32:25.399Z,840.50
2018-02-05T08:34:30.876Z,803.90
2018-02-05T08:36:36.526Z,768.70
2018-02-05T08:38:42.216Z,743.97
2018-02-05T08:40:47.570Z,722.13
2018-02-05T08:42:53.212Z,698.63
2018-02-05T08:44:58.532Z,677.17
2018-02-05T08:47:03.812Z,668.03
2018-02-05T08:49:10.116Z,650.63
2018-02-05T08:51:15.552Z,741.20
2018-02-05T08:53:21.058Z,816.33
2018-02-05T08:55:26.834Z,914.20
2018-02-05T08:57:32.393Z,869.57
2018-02-05T08:59:37.725Z,843.73
2018-02-05T09:01:43.735Z,796.90
2018-02-05T09:03:49.192Z,765.30
2018-02-05T09:05:54.649Z,731.07
2018-02-05T09:08:00.074Z,716.30
2018-02-05T09:10:05.804Z,704.93
2018-02-05T09:12:11.358Z,681.70
2018-02-05T09:14:16.869Z,668.20
2018-02-05T09:16:22.653Z,834.70
2018-02-05T09:18:28.399Z,838.83
2018-02-05T09:20:33.781Z,871.43
2018-02-05T09:22:40.111Z,882.77
2018-02-05T09:24:45.751Z,853.83
2018-02-05T09:26:51.036Z,817.60
2018-02-05T09:28:57.500Z,786.37
2018-02-05T09:31:03.427Z,760.97
2018-02-05T09:33:09.796Z,733.63
2018-02-05T09:35:15.459Z,714.70
2018-02-05T09:37:21.615Z,690.10
2018-02-05T09:39:27.105Z,672.17
2018-02-05T09:41:33.479Z,657.03
2018-02-05T09:43:39.419Z,647.50
2018-02-05T09:45:45.459Z,631.43
2018-02-05T09:47:51.114Z,621.33
2018-02-05T09:49:56.430Z,594.93
2018-02-05T09:52:01.828Z,576.60
2018-02-05T09:54:07.794Z,567.73
2018-02-05T09:56:13.138Z,556.13
2018-02-05T09:58:18.549Z,543.90
2018-02-05T10:00:24.225Z,511.17
2018-02-05T10:02:29.883Z,533.50
2018-02-05T10:04:35.442Z,552.87
2018-02-05T10:06:41.526Z,687.07
2018-02-05T10:08:47.387Z,715.67
2018-02-05T10:10:52.791Z,696.33
2018-02-05T10:12:59.349Z,683.40
2018-02-05T10:15:04.840Z,659.90
2018-02-05T10:17:10.691Z,661.77
2018-02-05T10:19:17.159Z,638.00
2018-02-05T10:21:22.723Z,631.87
2018-02-05T10:23:28.121Z,635.83
2018-02-05T10:25:33.808Z,676.33
2018-02-05T10:27:39.978Z,702.57
2018-02-05T10:29:45.410Z,671.77
2018-02-05T10:31:51.997Z,692.17
2018-02-05T10:33:57.475Z,615.27
2018-02-05T10:36:02.917Z,601.70
2018-02-05T10:38:08.732Z,570.33
2018-02-05T10:40:14.394Z,532.00
2018-02-05T10:42:19.895Z,516.10
2018-02-05T10:44:25.603Z,507.13
2018-02-05T10:46:31.018Z,519.03
2018-02-05T10:48:36.484Z,591.27
2018-02-05T10:50:42.308Z,652.53
2018-02-05T10:52:47.638Z,650.07
2018-02-05T10:54:53.781Z,573.97
2018-02-05T10:57:00.277Z,595.53
2018-02-05T10:59:06.725Z,506.03
2018-02-05T11:01:12.420Z,466.60
2018-02-05T11:03:18.193Z,466.77
2018-02-05T11:05:23.657Z,468.83
2018-02-05T11:07:29.896Z,454.73
2018-02-05T11:09:35.686Z,415.17
2018-02-05T11:11:41.099Z,391.43
2018-02-05T11:13:52.076Z,391.20
2018-02-05T11:15:58.020Z,449.00
2018-02-05T11:18:04.022Z,379.80
2018-02-05T11:20:10.107Z,369.67
2018-02-05T11:22:16.151Z,424.37
2018-02-05T11:24:23.228Z,463.27
2018-02-05T11:26:28.668Z,1043.90
2018-02-05T11:28:34.362Z,549.30
2018-02-05T11:30:39.768Z,502.73
2018-02-05T11:32:45.266Z,573.53
2018-02-05T11:34:51.405Z,792.07
2018-02-05T11:36:56.808Z,693.13
2018-02-05T11:39:02.837Z,648.40
2018-02-05T11:41:09.303Z,607.17
2018-02-05T11:43:14.737Z,571.87
2018-02-05T11:45:20.048Z,550.93
2018-02-05T11:47:25.754Z,528.47
2018-02-05T11:49:32.268Z,513.47
2018-02-05T11:51:37.719Z,498.00
2018-02-05T11:53:43.500Z,480.90
2018-02-05T11:55:49.149Z,472.80
2018-02-05T11:57:54.689Z,458.40
2018-02-05T12:00:00.417Z,449.57
2018-02-05T12:02:06.086Z,434.80
2018-02-05T12:04:11.499Z,428.87
2018-02-05T12:06:17.261Z,343.57
2018-02-05T12:08:22.612Z,291.00
2018-02-05T12:10:28.865Z,272.77
2018-02-05T12:12:34.928Z,276.67
2018-02-05T12:14:40.702Z,267.30
2018-02-05T12:16:46.219Z,262.60
2018-02-05T12:18:51.892Z,236.30
2018-02-05T12:20:57.240Z,234.53
2018-02-05T12:23:02.646Z,217.53
2018-02-05T12:25:08.607Z,301.70
2018-02-05T12:27:14.060Z,468.90
2018-02-05T12:29:19.544Z,530.17
2018-02-05T12:31:25.171Z,541.53
2018-02-05T12:33:30.586Z,471.27
2018-02-05T12:35:35.983Z,483.67
2018-02-05T12:37:41.740Z,455.80
2018-02-05T12:39:47.112Z,453.57
2018-02-05T12:41:53.692Z,435.20
2018-02-05T12:43:59.571Z,397.03
2018-02-05T12:46:05.100Z,398.17
2018-02-05T12:48:10.643Z,481.97
2018-02-05T12:50:16.334Z,353.87
2018-02-05T12:52:21.862Z,322.13
2018-02-05T12:54:28.694Z,456.87
2018-02-05T12:56:37.745Z,653.53
2018-02-05T12:58:43.313Z,467.13
2018-02-05T13:03:12.511Z,270.73
2018-02-05T13:05:18.031Z,245.03
2018-02-05T13:07:24.111Z,224.97
2018-02-05T13:09:29.871Z,226.77
2018-02-05T13:11:35.654Z,218.17
2018-02-05T13:13:42.021Z,254.57
2018-02-05T13:15:47.658Z,546.73
2018-02-05T13:17:53.130Z,459.30
2018-02-05T13:19:58.525Z,499.03
2018-02-05T13:22:04.179Z,484.97
2018-02-05T13:24:10.036Z,459.47
2018-02-05T13:26:15.368Z,446.23
2018-02-05T13:28:21.064Z,394.83
2018-02-05T13:30:26.445Z,398.07
2018-02-05T13:32:31.879Z,347.60
2018-02-05T13:34:37.582Z,333.67
2018-02-05T13:36:42.876Z,317.67
2018-02-05T13:38:48.476Z,313.40
2018-02-05T13:40:54.068Z,297.57
2018-02-05T13:42:59.560Z,279.90
2018-02-05T13:45:05.288Z,260.67
2018-02-05T13:47:11.053Z,253.83
2018-02-05T13:49:17.550Z,239.73
2018-02-05T13:51:23.949Z,222.23
2018-02-05T13:53:30.480Z,225.30
2018-02-05T13:55:35.954Z,202.23
2018-02-05T13:57:41.293Z,204.43
2018-02-05T13:59:47.037Z,194.47
2018-02-05T14:01:53.055Z,183.60
2018-02-05T14:03:58.492Z,182.63
2018-02-05T14:06:04.145Z,165.37
2018-02-05T14:08:09.597Z,162.60
2018-02-05T14:10:14.930Z,151.10
2018-02-05T14:12:20.571Z,145.57
2018-02-05T14:14:26.226Z,134.80
2018-02-05T14:16:31.604Z,134.33
2018-02-05T14:18:37.269Z,129.50
2018-02-05T14:20:42.495Z,124.80
2018-02-05T14:22:47.787Z,118.47
2018-02-05T14:24:53.407Z,118.17
2018-02-05T14:26:58.714Z,109.10
2018-02-05T14:29:04.042Z,99.77
2018-02-05T14:31:09.716Z,100.47
2018-02-05T14:33:15.027Z,94.43
2018-02-05T14:35:20.367Z,91.23
2018-02-05T14:37:26.031Z,90.03
2018-02-05T14:39:31.312Z,86.83
2018-02-05T14:41:36.632Z,85.10
2018-02-05T14:43:42.318Z,81.70
2018-02-05T14:45:47.684Z,77.40
2018-02-05T14:47:53.029Z,73.37
2018-02-05T14:49:58.755Z,69.77
2018-02-05T14:52:03.989Z,66.30
2018-02-05T14:54:09.368Z,62.67
2018-02-05T14:56:15.240Z,58.40
2018-02-05T14:58:20.603Z,62.77
2018-02-05T15:00:25.919Z,60.50
2018-02-05T15:02:31.518Z,54.33
2018-02-05T15:04:36.891Z,57.70
2018-02-05T15:06:42.498Z,56.57
2018-02-05T15:08:48.080Z,49.77
2018-02-05T15:10:54.003Z,48.87
2018-02-05T15:12:59.361Z,49.50
2018-02-05T15:15:05.284Z,45.90
2018-02-05T15:17:11.151Z,44.63
2018-02-05T15:19:16.485Z,42.03
2018-02-05T15:21:22.168Z,39.77
2018-02-05T15:23:27.488Z,38.47
2018-02-05T15:25:32.902Z,36.67
2018-02-05T15:27:38.491Z,37.07
2018-02-05T15:29:44.387Z,36.07
2018-02-05T15:31:49.753Z,33.43
2018-02-05T15:33:55.380Z,33.10
2018-02-05T15:36:00.755Z,32.17
2018-02-05T15:38:06.056Z,30.50
2018-02-05T15:40:11.604Z,30.97
2018-02-05T15:42:16.902Z,27.90
2018-02-05T15:44:22.247Z,30.67
2018-02-05T15:46:29.057Z,31.00
2018-02-05T15:48:34.441Z,26.10
2018-02-05T15:50:39.946Z,28.13
2018-02-05T15:52:45.511Z,29.40
2018-02-05T15:54:50.864Z,30.53
2018-02-05T15:57:13.158Z,24.27
2018-02-05T15:59:19.412Z,24.23
2018-02-05T16:01:24.720Z,24.70
2018-02-05T16:03:30.052Z,23.00
2018-02-05T16:05:35.616Z,25.97
2018-02-05T16:07:40.883Z,22.97
2018-02-05T16:09:46.151Z,22.73
2018-02-05T16:11:51.752Z,23.87
2018-02-05T16:13:57.721Z,23.40
2018-02-05T16:16:03.385Z,24.87
2018-02-05T16:18:08.902Z,22.90
2018-02-05T16:20:14.938Z,24.10
2018-02-05T16:22:20.204Z,22.93
2018-02-05T16:24:25.835Z,22.00
2018-02-05T16:26:31.135Z,22.50
2018-02-05T16:28:36.422Z,20.50
2018-02-05T16:30:42.048Z,22.60
2018-02-05T16:32:47.913Z,21.10
2018-02-05T16:34:55.423Z,23.27
2018-02-05T16:37:00.993Z,19.10
2018-02-05T16:39:07.173Z,18.73
2018-02-05T16:41:12.509Z,18.07
2018-02-05T16:43:18.088Z,17.40
2018-02-05T16:45:23.398Z,19.10
2018-02-05T16:47:28.620Z,20.37
2018-02-05T16:49:34.492Z,17.07
2018-02-05T16:51:39.901Z,18.97
2018-02-05T16:53:45.136Z,16.77
2018-02-05T16:55:50.691Z,17.00
2018-02-05T16:57:56.181Z,15.90
2018-02-05T17:00:02.048Z,18.40
2018-02-05T17:02:11.871Z,18.67
2018-02-05T17:04:17.183Z,16.60
2018-02-05T17:06:22.406Z,17.90
2018-02-05T17:08:27.919Z,15.90
2018-02-05T17:10:33.227Z,14.60
2018-02-05T17:12:38.889Z,17.33
2018-02-05T17:14:47.167Z,15.30
2018-02-05T17:16:53.571Z,15.97
2018-02-05T17:18:58.928Z,15.80
2018-02-05T17:21:04.743Z,15.87
2018-02-05T17:23:10.334Z,15.93
2018-02-05T17:25:16.912Z,18.60
2018-02-05T17:27:22.453Z,14.07
2018-02-05T17:29:27.717Z,17.77
2018-02-05T17:31:33.049Z,19.17
2018-02-05T17:33:38.655Z,20.90
2018-02-05T17:35:43.935Z,20.73
2018-02-05T17:37:49.248Z,20.37
2018-02-05T17:39:54.868Z,22.97
2018-02-05T17:42:00.097Z,22.80
2018-02-05T17:44:05.373Z,21.30
2018-02-05T17:46:12.100Z,22.23
2018-02-05T17:48:17.388Z,22.33
2018-02-05T17:50:23.620Z,19.97
2018-02-05T17:52:29.296Z,20.70
2018-02-05T17:54:34.594Z,19.53
2018-02-05T17:56:39.916Z,20.07
2018-02-05T17:58:45.555Z,20.10
2018-02-05T18:00:50.861Z,20.33
2018-02-05T18:02:56.208Z,18.63
2018-02-05T18:05:01.855Z,18.00
2018-02-05T18:07:07.161Z,18.83
2018-02-05T18:09:12.532Z,17.70
2018-02-05T18:11:18.202Z,15.47
2018-02-05T18:13:23.628Z,18.20
2018-02-05T18:15:31.280Z,18.03
2018-02-05T18:17:37.097Z,18.67
2018-02-05T18:19:43.053Z,16.27
2018-02-05T18:21:48.501Z,17.23
2018-02-05T18:23:54.177Z,18.50
2018-02-05T18:25:59.447Z,18.90
2018-02-05T18:28:04.673Z,15.30
2018-02-05T18:30:10.273Z,17.23
2018-02-05T18:32:15.599Z,16.43
2018-02-05T18:34:20.899Z,16.50
2018-02-05T18:36:26.594Z,17.40
2018-02-05T18:38:31.919Z,15.27
2018-02-05T18:40:37.240Z,14.67
2018-02-05T18:42:44.324Z,18.43
2018-02-05T18:44:49.733Z,15.80
2018-02-05T18:46:55.148Z,17.10
2018-02-05T18:49:01.864Z,19.27
2018-02-05T18:51:08.881Z,16.47
2018-02-05T18:53:14.181Z,18.17
2018-02-05T18:55:20.744Z,18.50
2018-02-05T18:57:26.173Z,15.50
2018-02-05T18:59:31.721Z,17.80
2018-02-05T19:01:37.296Z,15.83
2018-02-05T19:03:42.784Z,19.00
2018-02-05T19:05:48.189Z,17.60
2018-02-05T19:07:53.849Z,19.10
2018-02-05T19:09:59.376Z,19.30
2018-02-05T19:12:04.867Z,16.47
2018-02-05T19:14:11.519Z,18.40
2018-02-05T19:16:18.119Z,15.73
2018-02-05T19:18:23.592Z,18.93
2018-02-05T19:20:30.118Z,18.30
2018-02-05T19:22:35.483Z,17.80
2018-02-05T19:24:40.767Z,18.87
2018-02-05T19:26:46.624Z,18.30
2018-02-05T19:28:51.931Z,19.73
2018-02-05T19:30:57.351Z,20.50
2018-02-05T19:33:03.256Z,17.93
2018-02-05T19:35:08.526Z,17.07
2018-02-05T19:37:14.012Z,19.17
2018-02-05T19:39:19.691Z,20.00
2018-02-05T19:41:25.060Z,20.83
2018-02-05T19:43:30.576Z,17.97
2018-02-05T19:45:36.322Z,21.60
2018-02-05T19:47:42.524Z,19.90
2018-02-05T19:49:47.944Z,18.93
2018-02-05T19:51:53.552Z,19.23
2018-02-05T19:53:59.163Z,18.07
2018-02-05T19:56:04.929Z,18.20
2018-02-05T19:58:09.142Z,17.80
2018-02-05T20:00:12.960Z,18.20
2018-02-05T20:02:16.798Z,19.37
2018-02-05T20:04:20.909Z,19.10
2018-02-05T20:06:24.796Z,16.80
2018-02-05T20:08:29.071Z,19.23
2018-02-05T20:10:33.598Z,21.03
2018-02-05T20:12:37.632Z,20.07
2018-02-05T20:14:41.610Z,19.37
2018-02-05T20:16:45.714Z,20.10
2018-02-05T20:18:49.610Z,18.33
2018-02-05T20:20:53.653Z,20.53
2018-02-05T20:22:57.784Z,19.23
2018-02-05T20:25:01.912Z,23.40
2018-02-05T20:27:05.710Z,19.90
2018-02-05T20:29:10.444Z,18.30
2018-02-05T20:31:14.917Z,20.03
2018-02-05T20:33:18.838Z,18.70
2018-02-05T20:35:23.075Z,19.93
2018-02-05T20:37:26.973Z,19.63
2018-02-05T20:39:31.139Z,20.47
2018-02-05T20:41:36.401Z,19.20
2018-02-05T20:43:40.464Z,20.10
2018-02-05T20:45:44.351Z,19.60
2018-02-05T20:47:48.622Z,19.57
2018-02-05T20:49:52.437Z,20.30
2018-02-05T20:51:56.387Z,21.10
2018-02-05T20:54:00.796Z,22.77
2018-02-05T20:56:04.614Z,21.33
2018-02-05T20:58:08.373Z,24.67
2018-02-05T21:00:12.771Z,22.10
2018-02-05T21:02:16.714Z,22.13
2018-02-05T21:04:20.567Z,19.50
2018-02-05T21:06:24.659Z,19.43
2018-02-05T21:08:28.660Z,21.80
2018-02-05T21:10:32.557Z,21.37
2018-02-05T21:12:36.600Z,22.47
2018-02-05T21:14:40.533Z,21.30
2018-02-05T21:16:44.972Z,23.17
2018-02-05T21:18:49.214Z,25.30
2018-02-05T21:20:53.070Z,20.80
2018-02-05T21:22:56.934Z,21.77
2018-02-05T21:25:01.070Z,23.30
2018-02-05T21:27:04.841Z,23.30
2018-02-05T21:29:08.827Z,24.83
2018-02-05T21:31:12.882Z,22.17
2018-02-05T21:33:17.069Z,22.67
2018-02-05T21:35:20.905Z,21.80
2018-02-05T21:37:25.065Z,21.47
2018-02-05T21:39:28.822Z,21.30
2018-02-05T21:41:32.849Z,26.07
2018-02-05T21:43:36.918Z,23.97
2018-02-05T21:45:41.279Z,22.03
2018-02-05T21:47:45.115Z,24.00
2018-02-05T21:49:49.904Z,24.33
2018-02-05T21:51:54.066Z,23.03
2018-02-05T21:53:57.922Z,23.57
2018-02-05T21:56:02.167Z,22.20
2018-02-05T21:58:06.014Z,24.00
2018-02-05T22:00:10.046Z,23.63
2018-02-05T22:02:14.165Z,23.93
2018-02-05T22:04:18.268Z,24.67
2018-02-05T22:06:22.026Z,22.97
2018-02-05T22:08:26.145Z,22.43
2018-02-05T22:10:29.951Z,27.13
2018-02-05T22:12:34.170Z,24.23
2018-02-05T22:14:38.275Z,23.80
2018-02-05T22:16:42.200Z,23.17
2018-02-05T22:18:46.072Z,22.90
2018-02-05T22:20:50.166Z,22.27
2018-02-05T22:22:54.259Z,21.07
2018-02-05T22:24:58.054Z,21.33
2018-02-05T22:27:02.214Z,21.67
2018-02-05T22:29:06.666Z,23.83
2018-02-05T22:31:10.546Z,21.53
2018-02-05T22:33:14.660Z,21.40
2018-02-05T22:35:19.244Z,21.37
2018-02-05T22:37:23.908Z,21.63
2018-02-05T22:39:28.503Z,24.83
2018-02-05T22:41:32.281Z,22.00
2018-02-05T22:43:36.552Z,22.77
2018-02-05T22:45:40.687Z,19.43
2018-02-05T22:47:44.617Z,23.17
2018-02-05T22:49:48.852Z,24.07
2018-02-05T22:51:53.997Z,20.03
2018-02-05T22:53:57.866Z,20.50
2018-02-05T22:56:02.356Z,19.03
2018-02-05T22:58:06.504Z,19.13
2018-02-05T23:00:11.246Z,21.73
2018-02-05T23:02:15.088Z,23.00
2018-02-05T23:04:19.214Z,18.73
2018-02-05T23:06:23.079Z,18.70
2018-02-05T23:08:26.942Z,20.43
2018-02-05T23:10:31.114Z,19.50
2018-02-05T23:12:35.304Z,21.10
2018-02-05T23:14:39.095Z,20.70
2018-02-05T23:16:43.921Z,20.33
2018-02-05T23:18:48.115Z,19.13
2018-02-05T23:20:52.439Z,17.27
2018-02-05T23:22:56.709Z,17.10
2018-02-05T23:25:00.525Z,20.17
2018-02-05T23:27:04.335Z,20.00
2018-02-05T23:29:08.505Z,20.67
2018-02-05T23:31:12.466Z,20.93
2018-02-05T23:33:16.332Z,20.63
2018-02-05T23:35:20.442Z,18.67
2018-02-05T23:37:24.258Z,19.70
2018-02-05T23:39:28.055Z,21.83
2018-02-05T23:41:31.842Z,23.33
2018-02-05T23:43:35.943Z,22.20
2018-02-05T23:45:39.725Z,20.27
2018-02-05T23:47:43.530Z,19.93
2018-02-05T23:49:47.757Z,20.10
2018-02-05T23:51:51.587Z,20.17
2018-02-05T23:53:55.473Z,21.37
2018-02-05T23:55:59.613Z,18.53
2018-02-05T23:58:03.430Z,21.03
